Time;durP1;ratioP1;P1;durP2;ratioP2;P2;SDS_P1;SDS_P2;PMS_P1;PMS_P2;Temp;Humidity;BMP_temperature;BMP_pressure;BME280_temperature;BME280_humidity;BME280_pressure;Samples;Min_cycle;Max_cycle;Signal;HPM_P1;HPM_P2
2023/09/06 00:02:10;;;;;;;15.05;13.45;;;19.20;99.90;;;;;;5119650;28;20453;-61
2023/09/06 00:04:36;;;;;;;15.15;12.82;;;19.20;99.90;;;;;;5119545;28;20088;-61
2023/09/06 00:07:03;;;;;;;16.55;12.68;;;19.10;99.90;;;;;;5118576;28;20175;-61
2023/09/06 00:09:29;;;;;;;16.75;13.38;;;19.20;99.90;;;;;;5119861;28;20050;-61
2023/09/06 00:11:54;;;;;;;17.33;13.98;;;19.20;99.90;;;;;;5118521;28;20103;-62
2023/09/06 00:14:20;;;;;;;15.93;14.02;;;19.10;99.90;;;;;;5119821;28;20047;-61
2023/09/06 00:16:49;;;;;;;21.30;14.73;;;19.20;99.90;;;;;;5118820;28;20040;-61
2023/09/06 00:19:15;;;;;;;17.33;13.73;;;19.10;99.90;;;;;;5118970;28;20031;-61
2023/09/06 00:21:43;;;;;;;19.55;14.82;;;19.20;99.90;;;;;;5119066;28;20042;-61
2023/09/06 00:24:12;;;;;;;16.17;14.32;;;19.10;99.90;;;;;;5118944;28;20093;-60
2023/09/06 00:26:43;;;;;;;17.35;14.73;;;19.10;99.90;;;;;;5119393;28;20104;-60
2023/09/06 00:29:08;;;;;;;17.95;13.70;;;19.10;99.90;;;;;;5118331;28;20376;-60
2023/09/06 00:31:37;;;;;;;20.58;15.07;;;19.10;99.90;;;;;;5119715;28;20059;-61
2023/09/06 00:34:03;;;;;;;16.92;13.80;;;19.10;99.90;;;;;;5118330;28;20052;-61
2023/09/06 00:36:29;;;;;;;15.85;13.57;;;19.10;99.90;;;;;;5119397;28;20048;-62
2023/09/06 00:38:59;;;;;;;16.50;13.57;;;19.10;99.90;;;;;;5121298;28;20107;-61
2023/09/06 00:41:26;;;;;;;17.70;14.55;;;19.00;99.90;;;;;;5122449;28;20046;-61
2023/09/06 00:43:51;;;;;;;17.95;14.73;;;19.00;99.90;;;;;;5123435;28;20060;-61
2023/09/06 00:46:19;;;;;;;16.70;14.07;;;19.00;99.90;;;;;;5122094;28;20071;-61
2023/09/06 00:48:46;;;;;;;16.55;13.70;;;18.90;99.90;;;;;;5123620;28;20039;-61
2023/09/06 00:51:12;;;;;;;16.40;14.43;;;18.90;99.90;;;;;;5122349;28;20051;-61
2023/09/06 00:53:39;;;;;;;15.40;13.48;;;18.90;99.90;;;;;;5122861;28;20039;-61
2023/09/06 00:56:08;;;;;;;16.60;13.02;;;18.90;99.90;;;;;;5106663;28;20523;-62
2023/09/06 00:58:36;;;;;;;15.43;13.07;;;18.80;99.90;;;;;;5101744;28;20083;-61
2023/09/06 01:01:06;;;;;;;15.73;13.68;;;18.70;99.90;;;;;;5102637;28;20044;-62
2023/09/06 01:03:32;;;;;;;15.93;13.35;;;18.70;99.90;;;;;;5101481;28;20088;-61
2023/09/06 01:06:12;;;;;;;16.48;13.20;;;18.60;99.90;;;;;;5102631;28;20519;-61
2023/09/06 01:08:46;;;;;;;20.58;14.40;;;18.60;99.90;;;;;;5101779;28;20055;-61
2023/09/06 01:11:32;;;;;;;17.40;14.13;;;18.50;99.90;;;;;;5101825;28;20373;-61
2023/09/06 01:13:59;;;;;;;16.48;13.80;;;18.50;99.90;;;;;;5102672;28;20048;-61
2023/09/06 01:16:29;;;;;;;19.48;14.43;;;18.50;99.90;;;;;;5101219;28;20475;-61
2023/09/06 01:18:56;;;;;;;17.35;14.65;;;18.40;99.90;;;;;;5102273;28;20036;-61
2023/09/06 01:21:33;;;;;;;16.83;14.98;;;18.50;99.90;;;;;;5101569;28;20036;-61
2023/09/06 01:23:59;;;;;;;17.60;15.70;;;18.50;99.90;;;;;;5101613;28;20059;-61
2023/09/06 01:26:27;;;;;;;19.25;16.48;;;18.50;99.90;;;;;;5102070;28;20789;-61
2023/09/06 01:28:53;;;;;;;18.17;15.75;;;18.50;99.90;;;;;;5101038;28;20048;-61
2023/09/06 01:31:19;;;;;;;20.00;16.20;;;18.40;99.90;;;;;;5102185;28;20090;-61
2023/09/06 01:33:45;;;;;;;19.05;17.00;;;18.50;99.90;;;;;;5100600;28;20052;-61
2023/09/06 01:36:10;;;;;;;19.48;17.02;;;18.40;99.90;;;;;;5102435;28;20051;-61
2023/09/06 01:38:36;;;;;;;19.63;16.95;;;18.40;99.90;;;;;;5101335;28;20028;-61
2023/09/06 01:41:03;;;;;;;19.35;17.25;;;18.40;99.90;;;;;;5101145;28;20040;-61
2023/09/06 01:43:31;;;;;;;20.55;18.20;;;18.40;99.90;;;;;;5101518;28;20047;-61
2023/09/06 01:45:56;;;;;;;20.65;18.17;;;18.40;99.90;;;;;;5100614;28;20060;-61
2023/09/06 01:48:22;;;;;;;20.98;18.75;;;18.40;99.90;;;;;;5101293;28;20047;-60
2023/09/06 01:50:48;;;;;;;21.80;18.40;;;18.40;99.90;;;;;;5099931;28;20051;-61
2023/09/06 01:53:14;;;;;;;19.67;17.55;;;18.40;99.90;;;;;;5101930;28;20052;-61
2023/09/06 01:55:43;;;;;;;20.95;18.15;;;18.30;99.90;;;;;;5113474;28;20105;-61
2023/09/06 01:58:10;;;;;;;20.55;17.45;;;18.40;99.90;;;;;;5121730;28;20040;-61
2023/09/06 02:00:37;;;;;;;22.00;18.50;;;18.40;99.90;;;;;;5121635;28;20040;-61
2023/09/06 02:03:09;;;;;;;19.73;17.65;;;18.40;99.90;;;;;;5120690;28;20065;-61
2023/09/06 02:05:35;;;;;;;19.92;17.85;;;18.40;99.90;;;;;;5122095;28;20081;-61
2023/09/06 02:08:01;;;;;;;21.52;17.83;;;18.40;99.90;;;;;;5120733;28;20039;-62
2023/09/06 02:10:27;;;;;;;19.52;16.48;;;18.40;99.90;;;;;;5121753;28;20051;-60
2023/09/06 02:12:53;;;;;;;19.02;17.02;;;18.30;99.90;;;;;;5121161;28;20040;-60
2023/09/06 02:15:18;;;;;;;19.40;17.40;;;18.30;99.90;;;;;;5120983;28;20148;-61
2023/09/06 02:17:44;;;;;;;20.80;17.08;;;18.30;99.90;;;;;;5121507;28;20084;-61
2023/09/06 02:20:19;;;;;;;18.42;16.38;;;18.20;99.90;;;;;;5118692;28;20055;-61
2023/09/06 02:22:51;;;;;;;23.05;17.42;;;18.30;99.90;;;;;;5121349;28;20123;-60
2023/09/06 02:25:20;;;;;;;18.90;16.05;;;18.20;99.90;;;;;;5120383;28;20380;-62
2023/09/06 02:27:46;;;;;;;18.15;16.17;;;18.20;99.90;;;;;;5121216;28;20048;-62
2023/09/06 02:30:13;;;;;;;18.38;16.30;;;18.30;99.90;;;;;;5120943;28;20075;-61
2023/09/06 02:32:40;;;;;;;20.95;17.52;;;18.20;99.90;;;;;;5118764;28;20055;-63
2023/09/06 02:35:07;;;;;;;21.08;16.95;;;18.20;99.90;;;;;;5100314;28;20059;-63
2023/09/06 02:37:34;;;;;;;20.55;17.02;;;18.10;99.90;;;;;;5099667;28;20051;-62
2023/09/06 02:39:59;;;;;;;19.20;16.60;;;18.20;99.90;;;;;;5100740;28;20105;-61
2023/09/06 02:42:26;;;;;;;18.67;16.63;;;18.20;99.90;;;;;;5099804;28;20131;-61
2023/09/06 02:44:53;;;;;;;18.58;16.42;;;18.10;99.90;;;;;;5100330;28;20501;-61
2023/09/06 02:47:25;;;;;;;17.50;15.55;;;18.20;99.90;;;;;;5100146;28;20388;-61
2023/09/06 02:49:55;;;;;;;18.15;16.05;;;18.10;99.90;;;;;;5099166;28;20129;-61
2023/09/06 02:52:28;;;;;;;18.67;15.30;;;18.10;99.90;;;;;;5100180;28;20077;-61
2023/09/06 02:54:57;;;;;;;17.40;15.48;;;18.10;99.90;;;;;;5105378;28;20036;-61
2023/09/06 02:57:25;;;;;;;17.98;15.10;;;18.10;99.90;;;;;;5120748;27;20065;-62
2023/09/06 02:59:51;;;;;;;16.88;15.07;;;18.10;99.90;;;;;;5120238;28;20034;-61
2023/09/06 03:02:22;;;;;;;16.67;13.98;;;18.10;99.90;;;;;;5119413;28;20043;-61
2023/09/06 03:05:03;;;;;;;18.30;14.75;;;18.10;99.90;;;;;;5120450;28;20634;-61
2023/09/06 03:07:33;;;;;;;15.85;13.82;;;18.10;99.90;;;;;;5119488;28;20038;-61
2023/09/06 03:09:58;;;;;;;16.58;14.77;;;18.10;99.90;;;;;;5120625;28;20662;-61
2023/09/06 03:12:24;;;;;;;15.57;13.98;;;18.10;99.90;;;;;;5119303;28;20067;-63
2023/09/06 03:14:50;;;;;;;16.55;14.20;;;18.00;99.90;;;;;;5120474;28;20035;-61
2023/09/06 03:17:18;;;;;;;17.00;14.40;;;18.00;99.90;;;;;;5120136;28;20035;-64
2023/09/06 03:19:46;;;;;;;15.25;13.27;;;18.00;99.90;;;;;;5119319;28;20046;-61
2023/09/06 03:22:12;;;;;;;15.85;13.50;;;18.00;99.90;;;;;;5118644;28;20445;-61
2023/09/06 03:24:43;;;;;;;16.00;13.70;;;18.00;99.90;;;;;;5118894;28;20071;-62
2023/09/06 03:27:15;;;;;;;15.50;13.65;;;17.90;99.90;;;;;;5120108;28;20135;-62
2023/09/06 03:29:41;;;;;;;;;;;17.90;99.90;;;;;;5119933;27;20036;-61
2023/09/06 03:32:08;;;;;;;15.85;12.93;;;17.80;99.90;;;;;;5119820;28;19919;-62
2023/09/06 03:34:34;;;;;;;17.45;12.60;;;17.80;99.90;;;;;;5119588;28;20232;-61
2023/09/06 03:37:04;;;;;;;15.38;13.27;;;17.80;99.90;;;;;;5118912;28;20048;-62
2023/09/06 03:39:37;;;;;;;15.10;13.27;;;17.80;99.90;;;;;;5120162;28;20043;-62
2023/09/06 03:42:08;;;;;;;16.25;12.43;;;17.80;99.90;;;;;;5118823;28;20044;-63
2023/09/06 03:44:37;;;;;;;19.27;12.97;;;17.80;99.90;;;;;;5119594;28;20584;-61
2023/09/06 03:47:05;;;;;;;14.15;11.80;;;17.80;99.90;;;;;;5119388;28;20266;-62
2023/09/06 03:49:35;;;;;;;15.05;12.27;;;17.70;99.90;;;;;;5118779;28;20093;-60
2023/09/06 03:52:04;;;;;;;15.20;11.70;;;17.70;99.90;;;;;;5119957;28;20055;-60
2023/09/06 03:54:30;;;;;;;15.90;11.85;;;17.70;99.90;;;;;;5115651;28;20521;-64
2023/09/06 03:56:55;;;;;;;13.80;11.60;;;17.70;99.90;;;;;;5099675;28;20959;-61
2023/09/06 03:59:21;;;;;;;16.08;13.18;;;17.70;99.90;;;;;;5098377;28;20048;-61
2023/09/06 04:01:47;;;;;;;16.75;12.52;;;17.70;99.90;;;;;;5099207;28;20052;-61
2023/09/06 04:04:13;;;;;;;13.95;11.80;;;17.70;99.90;;;;;;5098735;28;20048;-61
2023/09/06 04:06:43;;;;;;;13.65;12.10;;;17.60;99.90;;;;;;5098365;28;20040;-61
2023/09/06 04:09:13;;;;;;;14.50;11.63;;;17.60;99.90;;;;;;5099458;28;20177;-61
2023/09/06 04:11:40;;;;;;;14.73;11.65;;;17.60;99.90;;;;;;5096456;28;20047;-62
2023/09/06 04:14:07;;;;;;;16.35;12.05;;;17.60;99.90;;;;;;5103870;28;20242;-61
2023/09/06 04:16:35;;;;;;;14.75;12.00;;;17.50;99.90;;;;;;5101780;28;20043;-60
2023/09/06 04:19:01;;;;;;;15.20;12.57;;;17.50;99.90;;;;;;5103234;28;20075;-61
2023/09/06 04:21:27;;;;;;;14.45;12.02;;;17.50;99.90;;;;;;5102924;28;20055;-60
2023/09/06 04:23:52;;;;;;;13.85;11.65;;;17.50;99.90;;;;;;5102163;28;20066;-62
2023/09/06 04:26:20;;;;;;;14.98;11.88;;;17.50;99.90;;;;;;5103194;28;20076;-61
2023/09/06 04:28:45;;;;;;;14.60;11.48;;;17.40;99.90;;;;;;5101663;28;20047;-61
2023/09/06 04:31:11;;;;;;;14.43;12.05;;;17.40;99.90;;;;;;5102853;28;20051;-61
2023/09/06 04:33:37;;;;;;;14.32;11.90;;;17.40;99.90;;;;;;5101443;28;20464;-60
2023/09/06 04:36:07;;;;;;;13.52;11.25;;;17.40;99.90;;;;;;5103017;28;20089;-61
2023/09/06 04:38:33;;;;;;;13.63;11.20;;;17.40;99.90;;;;;;5101797;28;20043;-61
2023/09/06 04:40:58;;;;;;;14.07;10.80;;;17.40;99.90;;;;;;5101925;28;20044;-61
2023/09/06 04:43:25;;;;;;;13.38;10.75;;;17.40;99.90;;;;;;5102803;28;20048;-60
2023/09/06 04:45:51;;;;;;;13.45;10.88;;;17.30;99.90;;;;;;5101260;28;20047;-61
2023/09/06 04:48:18;;;;;;;13.75;10.48;;;17.40;99.90;;;;;;5103041;28;20501;-61
2023/09/06 04:50:44;;;;;;;14.95;11.15;;;17.40;99.90;;;;;;5101367;28;20050;-61
2023/09/06 04:53:12;;;;;;;13.95;10.82;;;17.40;99.90;;;;;;5103001;28;20060;-61
2023/09/06 04:55:39;;;;;;;13.50;10.52;;;17.40;99.90;;;;;;5107449;28;20040;-61
2023/09/06 04:58:07;;;;;;;14.80;10.43;;;17.30;99.90;;;;;;5101862;28;20093;-61
2023/09/06 05:00:37;;;;;;;13.45;9.95;;;17.40;99.90;;;;;;5102166;28;20036;-61
2023/09/06 05:03:08;;;;;;;14.77;11.20;;;17.30;99.90;;;;;;5101107;28;20044;-62
2023/09/06 05:05:35;;;;;;;15.40;10.63;;;17.30;99.90;;;;;;5102898;28;20054;-61
2023/09/06 05:08:01;;;;;;;12.25;9.98;;;17.30;99.90;;;;;;5101080;28;20123;-61
2023/09/06 05:10:26;;;;;;;13.88;9.90;;;17.30;99.90;;;;;;5102583;28;20067;-61
2023/09/06 05:12:52;;;;;;;12.65;10.10;;;17.20;99.90;;;;;;5101143;28;20044;-58
2023/09/06 05:15:18;;;;;;;12.80;9.90;;;17.20;99.90;;;;;;5101738;28;20592;-61
2023/09/06 05:17:43;;;;;;;12.77;9.27;;;17.20;99.90;;;;;;5101829;28;20067;-61
2023/09/06 05:20:35;;;;;;;12.45;9.45;;;17.20;99.90;;;;;;5100982;28;20091;-61
2023/09/06 05:23:15;;;;;;;13.53;9.20;;;17.20;99.90;;;;;;5102507;28;20091;-61
2023/09/06 05:25:42;;;;;;;13.27;9.48;;;17.20;99.90;;;;;;5100901;28;20078;-61
2023/09/06 05:28:09;;;;;;;12.23;9.32;;;17.30;99.90;;;;;;5101066;28;20040;-61
2023/09/06 05:30:43;;;;;;;11.32;9.00;;;17.30;99.90;;;;;;5101737;28;20051;-61
2023/09/06 05:33:11;;;;;;;12.02;9.27;;;17.30;99.90;;;;;;5100374;28;20043;-56
2023/09/06 05:35:37;;;;;;;13.38;9.43;;;17.30;99.90;;;;;;5102213;28;20504;-61
2023/09/06 05:38:03;;;;;;;10.70;8.98;;;17.40;99.90;;;;;;5100254;28;20044;-61
2023/09/06 05:40:30;;;;;;;13.00;9.90;;;17.40;99.90;;;;;;5101740;28;20372;-61
2023/09/06 05:42:57;;;;;;;12.23;9.38;;;17.50;99.90;;;;;;5100787;28;20052;-61
2023/09/06 05:45:23;;;;;;;12.80;9.70;;;17.50;99.90;;;;;;5100797;28;20040;-61
2023/09/06 05:47:49;;;;;;;13.95;9.32;;;17.50;99.90;;;;;;5101506;28;20506;-61
2023/09/06 05:50:15;;;;;;;12.73;10.07;;;17.50;99.90;;;;;;5098355;28;20047;-61
2023/09/06 05:52:41;;;;;;;11.95;9.10;;;17.60;99.90;;;;;;5101196;28;20044;-61
2023/09/06 05:55:08;;;;;;;12.18;9.27;;;17.60;99.90;;;;;;5108246;28;20048;-62
2023/09/06 05:57:33;;;;;;;11.88;8.77;;;17.70;99.90;;;;;;5122044;28;20036;-61
2023/09/06 06:00:00;;;;;;;13.68;9.18;;;17.80;99.90;;;;;;5119924;28;20055;-59
2023/09/06 06:02:26;;;;;;;11.23;8.80;;;17.90;99.90;;;;;;5120279;28;20057;-61
2023/09/06 06:04:52;;;;;;;11.50;8.70;;;17.90;99.90;;;;;;5118565;28;20113;-61
2023/09/06 06:07:19;;;;;;;13.15;9.18;;;18.00;99.90;;;;;;5116463;28;20040;-61
2023/09/06 06:09:45;;;;;;;11.43;8.75;;;18.10;99.90;;;;;;5117813;28;20530;-61
2023/09/06 06:12:10;;;;;;;13.27;8.27;;;18.20;99.90;;;;;;5116687;28;20058;-62
2023/09/06 06:14:37;;;;;;;11.68;7.95;;;18.30;99.90;;;;;;5117931;28;20055;-61
2023/09/06 06:17:06;;;;;;;10.73;7.57;;;18.40;99.90;;;;;;5116505;28;20079;-61
2023/09/06 06:19:35;;;;;;;10.55;7.38;;;18.40;99.90;;;;;;5116115;28;20075;-62
2023/09/06 06:22:04;;;;;;;10.55;6.93;;;18.50;99.90;;;;;;5117535;28;20036;-62
2023/09/06 06:24:34;;;;;;;11.70;8.02;;;18.60;99.90;;;;;;5115856;28;20050;-62
2023/09/06 06:27:00;;;;;;;10.88;6.95;;;18.70;99.90;;;;;;5117676;28;20070;-61
2023/09/06 06:29:26;;;;;;;10.63;6.93;;;18.80;99.90;;;;;;5115404;28;20103;-62
2023/09/06 06:31:52;;;;;;;12.20;7.22;;;18.80;99.90;;;;;;5117097;28;20081;-61
2023/09/06 06:34:18;;;;;;;11.52;6.70;;;18.90;99.90;;;;;;5115305;28;20043;-61
2023/09/06 06:36:46;;;;;;;9.77;6.72;;;19.00;99.90;;;;;;5114826;28;20056;-62
2023/09/06 06:39:13;;;;;;;10.70;7.10;;;19.00;99.90;;;;;;5116891;28;20048;-62
2023/09/06 06:41:40;;;;;;;10.07;6.18;;;19.00;99.90;;;;;;5115158;28;20044;-62
2023/09/06 06:44:06;;;;;;;10.50;6.50;;;19.10;99.90;;;;;;5115531;28;20043;-62
2023/09/06 06:46:33;;;;;;;12.02;6.47;;;19.20;99.90;;;;;;5115542;28;20530;-61
2023/09/06 06:49:02;;;;;;;9.60;6.72;;;19.30;99.90;;;;;;5117044;28;20093;-62
2023/09/06 06:51:34;;;;;;;9.35;6.60;;;19.30;99.90;;;;;;5115872;28;20051;-61
2023/09/06 06:54:02;;;;;;;9.68;6.00;;;19.40;99.90;;;;;;5115431;28;20040;-61
2023/09/06 06:56:27;;;;;;;8.57;6.28;;;19.50;99.90;;;;;;5097187;28;20451;-61
2023/09/06 06:58:53;;;;;;;10.05;5.97;;;19.50;99.90;;;;;;5095059;28;20047;-62
2023/09/06 07:01:20;;;;;;;9.00;6.18;;;19.60;99.90;;;;;;5096507;28;20058;-61
2023/09/06 07:03:47;;;;;;;9.75;5.78;;;19.70;99.90;;;;;;5094839;28;20040;-62
2023/09/06 07:06:13;;;;;;;8.55;5.03;;;19.70;99.90;;;;;;5096010;28;20515;-61
2023/09/06 07:08:42;;;;;;;8.18;4.70;;;19.80;99.90;;;;;;5096087;28;20058;-62
2023/09/06 07:11:07;;;;;;;7.30;4.28;;;19.90;99.90;;;;;;5095331;28;20056;-62
2023/09/06 07:13:34;;;;;;;10.25;5.05;;;20.00;99.90;;;;;;5096940;28;20024;-62
2023/09/06 07:16:00;;;;;;;9.02;4.78;;;20.00;99.10;;;;;;5095128;28;20036;-62
2023/09/06 07:18:26;;;;;;;7.47;4.40;;;20.10;98.20;;;;;;5095643;28;20044;-61
2023/09/06 07:20:52;;;;;;;7.90;4.88;;;20.20;95.50;;;;;;5094673;28;20040;-61
2023/09/06 07:23:17;;;;;;;7.65;4.53;;;20.30;93.00;;;;;;5096141;28;20036;-62
2023/09/06 07:25:46;;;;;;;8.20;4.85;;;20.40;90.60;;;;;;5095285;28;20358;-62
2023/09/06 07:28:13;;;;;;;8.90;4.50;;;20.50;90.60;;;;;;5093166;28;20048;-62
2023/09/06 07:30:39;;;;;;;8.38;4.80;;;20.50;87.70;;;;;;5093856;28;20325;-61
2023/09/06 07:33:05;;;;;;;7.10;4.25;;;20.50;86.50;;;;;;5094977;28;20043;-62
2023/09/06 07:35:30;;;;;;;7.75;4.43;;;20.70;86.40;;;;;;5095597;28;20055;-62
2023/09/06 07:37:56;;;;;;;8.73;4.35;;;20.70;80.40;;;;;;5094863;28;20056;-61
2023/09/06 07:40:22;;;;;;;6.93;4.22;;;20.80;82.80;;;;;;5100643;28;20131;-61
2023/09/06 07:42:47;;;;;;;6.57;4.07;;;20.90;84.60;;;;;;5104603;28;20040;-61
2023/09/06 07:45:15;;;;;;;10.07;4.28;;;21.00;80.70;;;;;;5104510;28;20040;-62
2023/09/06 07:47:41;;;;;;;7.53;3.90;;;21.10;77.00;;;;;;5103430;28;20509;-61
2023/09/06 07:50:09;;;;;;;6.55;3.90;;;21.10;76.50;;;;;;5101940;28;20054;-62
2023/09/06 07:52:36;;;;;;;6.55;3.97;;;21.30;70.50;;;;;;5095413;28;20052;-62
2023/09/06 07:55:04;;;;;;;7.03;3.90;;;21.40;72.40;;;;;;5101802;28;20039;-61
2023/09/06 07:57:29;;;;;;;6.32;3.63;;;21.50;72.00;;;;;;5115763;28;20126;-61
2023/09/06 07:59:55;;;;;;;8.00;3.83;;;21.60;60.50;;;;;;5115403;28;20047;-61
2023/09/06 08:02:22;;;;;;;7.28;3.47;;;21.70;58.20;;;;;;5115019;28;20047;-61
2023/09/06 08:04:48;;;;;;;6.18;3.42;;;21.80;59.20;;;;;;5106165;28;20036;-61
2023/09/06 08:07:13;;;;;;;6.65;3.92;;;21.90;53.50;;;;;;5094206;28;20150;-61
2023/09/06 08:09:39;;;;;;;6.80;3.30;;;21.90;49.20;;;;;;5095546;28;20094;-61
2023/09/06 08:12:05;;;;;;;6.10;3.20;;;22.00;50.80;;;;;;5105235;28;20065;-62
2023/09/06 08:14:31;;;;;;;7.85;3.30;;;22.10;50.70;;;;;;5102939;28;20111;-61
2023/09/06 08:16:57;;;;;;;8.27;3.22;;;22.20;45.40;;;;;;5104984;28;20083;-62
2023/09/06 08:19:23;;;;;;;8.27;3.35;;;22.30;43.10;;;;;;5102512;28;20086;-61
2023/09/06 08:21:48;;;;;;;5.20;2.63;;;22.30;30.00;;;;;;5115550;28;20095;-61
2023/09/06 08:24:17;;;;;;;7.10;3.00;;;22.50;30.70;;;;;;5114819;28;20055;-62
2023/09/06 08:26:43;;;;;;;7.95;2.95;;;22.50;22.80;;;;;;5113651;28;20121;-62
2023/09/06 08:29:08;;;;;;;6.22;2.95;;;22.50;22.90;;;;;;5114268;28;20059;-60
2023/09/06 08:31:34;;;;;;;6.03;2.47;;;22.60;22.70;;;;;;5115448;28;20078;-61
2023/09/06 08:34:00;;;;;;;6.57;2.83;;;22.70;22.90;;;;;;5114865;28;20051;-61
2023/09/06 08:36:26;;;;;;;7.85;2.70;;;22.80;15.00;;;;;;5115061;28;20051;-61
2023/09/06 08:38:52;;;;;;;6.15;2.92;;;22.90;18.10;;;;;;5115711;28;20071;-61
2023/09/06 08:41:20;;;;;;;5.43;2.78;;;22.90;7.70;;;;;;5113741;28;20050;-62
2023/09/06 08:43:46;;;;;;;6.65;2.85;;;22.90;8.40;;;;;;5115292;28;20100;-61
2023/09/06 08:46:18;;;;;;;6.82;2.78;;;23.00;12.90;;;;;;5115440;28;20450;-60
2023/09/06 08:48:45;;;;;;;7.25;2.78;;;23.00;8.30;;;;;;5119269;28;20047;-60
2023/09/06 08:51:11;;;;;;;5.38;2.53;;;23.10;12.40;;;;;;5118344;28;20040;-61
2023/09/06 08:53:44;;;;;;;5.72;2.60;;;23.10;4.80;;;;;;5117191;28;20047;-61
2023/09/06 08:56:10;;;;;;;6.50;2.78;;;23.20;5.00;;;;;;5102498;28;20047;-60
2023/09/06 08:58:36;;;;;;;5.93;2.88;;;23.30;9.60;;;;;;5097529;28;20040;-63
2023/09/06 09:01:05;;;;;;;6.45;2.80;;;23.50;2.50;;;;;;5102862;28;20651;-60
2023/09/06 09:03:31;;;;;;;6.10;2.65;;;23.60;5.00;;;;;;5101373;28;20063;-60
2023/09/06 09:06:09;;;;;;;6.25;2.38;;;23.60;4.40;;;;;;5102518;28;20075;-60
2023/09/06 09:08:35;;;;;;;5.35;2.50;;;23.60;4.20;;;;;;5102128;28;20067;-60
2023/09/06 09:11:12;;;;;;;6.63;2.80;;;23.70;3.00;;;;;;5101336;28;20044;-60
2023/09/06 09:13:38;;;;;;;5.57;2.50;;;23.80;1.00;;;;;;5102623;28;20040;-60
2023/09/06 09:16:11;;;;;;;5.85;2.58;;;23.80;1.00;;;;;;5100935;28;20051;-60
2023/09/06 09:18:38;;;;;;;6.20;2.20;;;23.90;1.00;;;;;;5101936;28;20048;-60
2023/09/06 09:21:09;;;;;;;5.15;2.45;;;23.90;1.00;;;;;;5101473;28;20055;-59
2023/09/06 09:23:46;;;;;;;6.30;2.40;;;24.00;1.00;;;;;;5100189;28;20052;-61
2023/09/06 09:26:12;;;;;;;5.35;2.10;;;24.20;1.00;;;;;;5102176;28;20035;-59
2023/09/06 09:28:41;;;;;;;6.10;2.58;;;24.20;1.00;;;;;;5100845;28;20048;-59
2023/09/06 09:31:13;;;;;;;5.10;2.15;;;24.30;1.00;;;;;;5100009;28;20337;-64
2023/09/06 09:33:39;;;;;;;6.72;2.47;;;24.30;1.00;;;;;;5099931;28;20078;-58
2023/09/06 09:36:06;;;;;;;5.55;2.38;;;24.40;1.00;;;;;;5101890;28;20044;-60
2023/09/06 09:38:31;;;;;;;7.13;2.40;;;24.50;1.00;;;;;;5101746;28;20067;-60
2023/09/06 09:41:08;;;;;;;5.25;2.25;;;24.60;1.00;;;;;;5100816;28;20077;-60
2023/09/06 09:43:35;;;;;;;5.47;2.17;;;24.60;1.00;;;;;;5101817;28;20048;-60
2023/09/06 09:46:01;;;;;;;6.15;2.33;;;24.60;1.00;;;;;;5100211;28;20051;-61
2023/09/06 09:48:30;;;;;;;6.07;2.10;;;24.80;1.00;;;;;;5102098;28;20051;-60
2023/09/06 09:50:57;;;;;;;5.88;2.50;;;24.80;1.00;;;;;;5100584;28;20040;-60
2023/09/06 09:53:23;;;;;;;6.15;2.13;;;24.90;1.00;;;;;;5101581;28;20097;-60
2023/09/06 09:55:53;;;;;;;5.22;2.40;;;25.00;1.00;;;;;;5115090;28;20046;-61
2023/09/06 09:58:20;;;;;;;5.70;2.33;;;25.00;1.00;;;;;;5120552;28;20045;-61
2023/09/06 10:00:52;;;;;;;5.20;2.00;;;25.10;1.00;;;;;;5122169;28;20047;-61
2023/09/06 10:03:21;;;;;;;5.72;2.40;;;25.20;1.00;;;;;;5120249;28;20039;-61
2023/09/06 10:05:47;;;;;;;7.97;2.10;;;25.20;1.00;;;;;;5121929;28;20073;-61
2023/09/06 10:08:15;;;;;;;5.55;2.50;;;25.40;1.00;;;;;;5120648;28;20761;-61
2023/09/06 10:10:41;;;;;;;5.47;2.20;;;25.40;1.00;;;;;;5121392;28;20055;-61
2023/09/06 10:13:10;;;;;;;6.03;2.30;;;25.50;1.00;;;;;;5108175;28;20044;-61
2023/09/06 10:15:36;;;;;;;5.53;2.05;;;25.60;1.00;;;;;;5100119;28;20032;-61
2023/09/06 10:18:04;;;;;;;5.72;2.47;;;25.60;1.00;;;;;;5100391;28;20694;-61
2023/09/06 10:20:32;;;;;;;6.57;2.13;;;25.70;1.00;;;;;;5098958;28;20044;-61
2023/09/06 10:22:59;;;;;;;5.53;2.10;;;25.90;1.00;;;;;;5101417;28;20036;-61
2023/09/06 10:25:25;;;;;;;6.00;1.90;;;25.90;1.00;;;;;;5100167;28;20079;-61
2023/09/06 10:27:59;;;;;;;6.10;2.20;;;25.90;1.00;;;;;;5100353;28;20103;-61
2023/09/06 10:30:43;;;;;;;6.35;1.98;;;26.00;1.00;;;;;;5111059;28;20062;-60
2023/09/06 10:33:11;;;;;;;4.70;1.88;;;26.20;1.00;;;;;;5119866;28;20670;-61
2023/09/06 10:35:45;;;;;;;4.68;1.85;;;26.20;1.00;;;;;;5121767;28;20048;-60
2023/09/06 10:38:15;;;;;;;5.35;2.28;;;26.20;1.00;;;;;;5120268;28;20040;-60
2023/09/06 10:40:50;;;;;;;5.15;2.10;;;26.30;1.00;;;;;;5120756;28;20051;-60
2023/09/06 10:43:43;;;;;;;5.25;1.88;;;26.30;1.00;;;;;;5120810;28;20431;-61
2023/09/06 10:46:08;;;;;;;5.85;2.30;;;26.40;1.00;;;;;;5104967;28;20055;-60
2023/09/06 10:48:35;;;;;;;6.30;2.08;;;26.50;1.00;;;;;;5120867;28;20039;-61
2023/09/06 10:51:08;;;;;;;5.47;1.73;;;26.60;1.00;;;;;;5119714;28;20084;-61
2023/09/06 10:53:34;;;;;;;3.85;1.50;;;26.60;1.00;;;;;;5118881;28;20058;-61
2023/09/06 10:56:02;;;;;;;5.57;2.13;;;26.80;1.00;;;;;;5103484;28;20126;-61
2023/09/06 10:58:29;;;;;;;4.65;1.90;;;26.80;1.00;;;;;;5099189;28;20058;-61
2023/09/06 11:01:20;;;;;;;6.30;1.90;;;26.80;1.00;;;;;;5100296;28;20052;-61
2023/09/06 11:03:53;;;;;;;6.82;1.77;;;27.10;1.00;;;;;;5099086;28;20051;-60
2023/09/06 11:06:23;;;;;;;6.97;2.10;;;27.10;1.00;;;;;;5099763;28;20609;-60
2023/09/06 11:08:50;;;;;;;5.35;2.28;;;27.10;1.00;;;;;;5099830;28;20059;-61
2023/09/06 11:11:15;;;;;;;5.03;1.90;;;27.20;1.00;;;;;;5080456;28;20051;-59
2023/09/06 11:13:44;;;;;;;7.43;1.92;;;27.20;1.00;;;;;;5098548;28;20099;-60
2023/09/06 11:16:15;;;;;;;5.43;2.10;;;27.20;1.00;;;;;;5099059;28;20040;-61
2023/09/06 11:18:50;;;;;;;4.68;1.80;;;27.30;1.00;;;;;;5099864;28;20066;-61
2023/09/06 11:21:19;;;;;;;4.65;1.98;;;27.30;1.00;;;;;;5098853;28;20055;-61
2023/09/06 11:23:54;;;;;;;6.13;2.45;;;27.30;1.00;;;;;;5098763;28;20036;-61
2023/09/06 11:26:20;;;;;;;5.35;2.00;;;27.40;1.00;;;;;;5099924;28;20048;-61
2023/09/06 11:28:47;;;;;;;5.30;1.98;;;27.50;1.00;;;;;;5098640;28;20044;-61
2023/09/06 11:31:39;;;;;;;5.95;2.20;;;27.60;1.00;;;;;;5099905;28;20104;-61
2023/09/06 11:34:08;;;;;;;4.95;2.20;;;27.70;1.00;;;;;;5095848;28;20055;-61
2023/09/06 11:36:36;;;;;;;4.60;2.20;;;27.70;1.00;;;;;;5099096;28;20051;-61
2023/09/06 11:39:28;;;;;;;6.38;2.10;;;27.70;1.00;;;;;;5100526;28;20441;-61
2023/09/06 11:41:54;;;;;;;5.40;2.10;;;27.80;1.00;;;;;;5106976;28;20470;-61
2023/09/06 11:44:23;;;;;;;4.68;1.98;;;27.90;1.00;;;;;;5104449;28;20148;-61
2023/09/06 11:46:49;;;;;;;6.95;2.30;;;28.00;1.00;;;;;;5107630;28;20079;-61
2023/09/06 11:49:17;;;;;;;5.25;1.75;;;28.20;1.00;;;;;;5099697;28;20427;-61
2023/09/06 11:51:46;;;;;;;4.45;1.73;;;28.10;1.00;;;;;;5098751;28;20051;-61
2023/09/06 11:54:12;;;;;;;4.43;1.80;;;28.20;1.00;;;;;;5097266;28;20047;-60
2023/09/06 11:56:42;;;;;;;5.28;1.90;;;28.20;1.00;;;;;;5119523;28;20032;-60
2023/09/06 11:59:12;;;;;;;5.07;1.88;;;28.30;1.00;;;;;;5118812;28;20043;-62
2023/09/06 12:01:40;;;;;;;5.03;2.05;;;28.30;1.00;;;;;;5119778;28;20040;-61
2023/09/06 12:04:13;;;;;;;5.32;2.10;;;28.20;1.00;;;;;;5119379;28;20039;-61
2023/09/06 12:06:41;;;;;;;4.75;1.50;;;28.40;1.00;;;;;;5119180;28;20031;-61
2023/09/06 12:09:12;;;;;;;4.18;1.75;;;28.40;1.00;;;;;;5119213;28;20470;-61
2023/09/06 12:11:38;;;;;;;5.10;1.90;;;28.50;1.00;;;;;;5118221;28;20109;-63
2023/09/06 12:14:04;;;;;;;4.40;1.80;;;28.50;1.00;;;;;;5119669;28;20079;-62
2023/09/06 12:16:31;;;;;;;6.03;1.98;;;28.50;1.00;;;;;;5118889;28;20069;-61
2023/09/06 12:18:56;;;;;;;4.07;1.55;;;28.60;1.00;;;;;;5119301;28;20471;-62
2023/09/06 12:21:22;;;;;;;4.78;1.83;;;28.60;1.00;;;;;;5119274;28;20059;-61
2023/09/06 12:23:48;;;;;;;4.90;1.80;;;28.60;1.00;;;;;;5118655;28;20117;-62
2023/09/06 12:26:16;;;;;;;6.55;1.98;;;28.70;1.00;;;;;;5119404;28;20063;-61
2023/09/06 12:28:42;;;;;;;5.07;1.98;;;28.70;1.00;;;;;;5118470;28;20032;-61
2023/09/06 12:31:08;;;;;;;4.93;1.92;;;28.70;1.00;;;;;;5119785;28;20063;-61
2023/09/06 12:33:33;;;;;;;4.70;1.92;;;28.80;1.00;;;;;;5117147;28;20039;-61
2023/09/06 12:36:00;;;;;;;6.45;2.25;;;28.80;1.00;;;;;;5123414;28;20146;-61
2023/09/06 12:38:30;;;;;;;4.88;2.28;;;28.80;1.00;;;;;;5123056;28;20051;-61
2023/09/06 12:40:56;;;;;;;6.90;2.72;;;28.80;1.00;;;;;;5122430;28;20126;-61
2023/09/06 12:43:24;;;;;;;4.47;1.67;;;28.90;1.00;;;;;;5123346;28;20044;-61
2023/09/06 12:45:53;;;;;;;4.88;1.95;;;28.90;1.00;;;;;;5122026;28;20050;-60